sensor_id;sensor_type;location;lat;lon;timestamp;P1;durP1;ratioP1;P2;durP2;ratioP2
60233;SDS011;49514;43.538;-5.708;2022-09-09T00:03:50;17.47;;;2.70;;
60233;SDS011;49514;43.538;-5.708;2022-09-09T00:06:24;18.77;;;2.58;;
60233;SDS011;49514;43.538;-5.708;2022-09-09T00:09:03;11.27;;;1.90;;
60233;SDS011;49514;43.538;-5.708;2022-09-09T00:16:53;10.07;;;1.70;;
60233;SDS011;49514;43.538;-5.708;2022-09-09T00:19:27;8.07;;;1.58;;
60233;SDS011;49514;43.538;-5.708;2022-09-09T00:24:54;7.82;;;1.45;;
60233;SDS011;49514;43.538;-5.708;2022-09-09T00:33:11;17.98;;;1.60;;
60233;SDS011;49514;43.538;-5.708;2022-09-09T00:35:38;9.07;;;1.88;;
60233;SDS011;49514;43.538;-5.708;2022-09-09T00:43:46;10.40;;;1.83;;
60233;SDS011;49514;43.538;-5.708;2022-09-09T00:52:03;7.03;;;1.30;;
60233;SDS011;49514;43.538;-5.708;2022-09-09T00:57:34;8.27;;;1.55;;
60233;SDS011;49514;43.538;-5.708;2022-09-09T01:11:26;13.73;;;1.95;;
60233;SDS011;49514;43.538;-5.708;2022-09-09T01:16:54;9.98;;;2.05;;
60233;SDS011;49514;43.538;-5.708;2022-09-09T01:19:29;5.20;;;1.00;;
60233;SDS011;49514;43.538;-5.708;2022-09-09T01:27:53;6.95;;;1.52;;
60233;SDS011;49514;43.538;-5.708;2022-09-09T01:30:23;6.72;;;1.02;;
60233;SDS011;49514;43.538;-5.708;2022-09-09T01:32:56;7.47;;;1.33;;
60233;SDS011;49514;43.538;-5.708;2022-09-09T01:35:46;5.67;;;1.33;;
60233;SDS011;49514;43.538;-5.708;2022-09-09T01:38:22;10.20;;;1.63;;
60233;SDS011;49514;43.538;-5.708;2022-09-09T01:40:52;9.88;;;1.38;;
60233;SDS011;49514;43.538;-5.708;2022-09-09T01:43:24;13.75;;;1.38;;
60233;SDS011;49514;43.538;-5.708;2022-09-09T01:45:53;10.15;;;1.60;;
60233;SDS011;49514;43.538;-5.708;2022-09-09T01:48:22;10.38;;;1.65;;
60233;SDS011;49514;43.538;-5.708;2022-09-09T01:51:00;9.52;;;1.67;;
60233;SDS011;49514;43.538;-5.708;2022-09-09T01:53:27;9.05;;;1.35;;
60233;SDS011;49514;43.538;-5.708;2022-09-09T01:59:01;10.93;;;2.15;;
60233;SDS011;49514;43.538;-5.708;2022-09-09T02:04:43;12.48;;;1.40;;
60233;SDS011;49514;43.538;-5.708;2022-09-09T02:07:44;7.78;;;1.20;;
60233;SDS011;49514;43.538;-5.708;2022-09-09T02:13:24;7.13;;;1.10;;
60233;SDS011;49514;43.538;-5.708;2022-09-09T02:18:29;10.95;;;1.35;;
60233;SDS011;49514;43.538;-5.708;2022-09-09T02:21:03;7.93;;;1.48;;
60233;SDS011;49514;43.538;-5.708;2022-09-09T02:23:33;9.23;;;1.30;;
60233;SDS011;49514;43.538;-5.708;2022-09-09T02:26:03;12.30;;;1.13;;
60233;SDS011;49514;43.538;-5.708;2022-09-09T02:28:31;16.80;;;1.77;;
60233;SDS011;49514;43.538;-5.708;2022-09-09T02:31:01;8.05;;;1.80;;
60233;SDS011;49514;43.538;-5.708;2022-09-09T02:33:36;8.80;;;1.50;;
60233;SDS011;49514;43.538;-5.708;2022-09-09T02:36:07;9.10;;;1.40;;
60233;SDS011;49514;43.538;-5.708;2022-09-09T02:38:37;9.75;;;1.48;;
60233;SDS011;49514;43.538;-5.708;2022-09-09T02:41:11;9.07;;;1.30;;
60233;SDS011;49514;43.538;-5.708;2022-09-09T02:43:38;10.00;;;1.23;;
60233;SDS011;49514;43.538;-5.708;2022-09-09T02:48:51;12.00;;;1.98;;
60233;SDS011;49514;43.538;-5.708;2022-09-09T02:51:53;12.53;;;1.47;;
60233;SDS011;49514;43.538;-5.708;2022-09-09T02:54:34;16.65;;;1.60;;
60233;SDS011;49514;43.538;-5.708;2022-09-09T02:57:11;13.57;;;1.55;;
60233;SDS011;49514;43.538;-5.708;2022-09-09T02:59:59;8.88;;;1.63;;
60233;SDS011;49514;43.538;-5.708;2022-09-09T03:02:31;14.00;;;1.70;;
60233;SDS011;49514;43.538;-5.708;2022-09-09T03:05:03;15.98;;;1.77;;
60233;SDS011;49514;43.538;-5.708;2022-09-09T03:07:31;15.35;;;2.10;;
60233;SDS011;49514;43.538;-5.708;2022-09-09T03:09:58;38.00;;;3.00;;
60233;SDS011;49514;43.538;-5.708;2022-09-09T03:12:26;14.88;;;1.92;;
60233;SDS011;49514;43.538;-5.708;2022-09-09T03:14:53;24.08;;;1.83;;
60233;SDS011;49514;43.538;-5.708;2022-09-09T03:17:20;17.25;;;1.90;;
60233;SDS011;49514;43.538;-5.708;2022-09-09T03:19:52;14.70;;;2.22;;
60233;SDS011;49514;43.538;-5.708;2022-09-09T03:22:21;18.70;;;1.88;;
60233;SDS011;49514;43.538;-5.708;2022-09-09T03:24:48;16.27;;;2.08;;
60233;SDS011;49514;43.538;-5.708;2022-09-09T03:27:15;8.45;;;1.70;;
60233;SDS011;49514;43.538;-5.708;2022-09-09T03:29:42;12.10;;;1.75;;
60233;SDS011;49514;43.538;-5.708;2022-09-09T03:32:13;15.27;;;2.22;;
60233;SDS011;49514;43.538;-5.708;2022-09-09T03:34:43;15.25;;;2.25;;
60233;SDS011;49514;43.538;-5.708;2022-09-09T03:37:13;16.65;;;1.70;;
60233;SDS011;49514;43.538;-5.708;2022-09-09T03:39:39;6.15;;;1.33;;
60233;SDS011;49514;43.538;-5.708;2022-09-09T03:42:07;10.30;;;1.30;;
60233;SDS011;49514;43.538;-5.708;2022-09-09T03:44:34;11.15;;;1.17;;
60233;SDS011;49514;43.538;-5.708;2022-09-09T03:47:01;7.88;;;1.70;;
60233;SDS011;49514;43.538;-5.708;2022-09-09T03:49:28;8.98;;;1.55;;
60233;SDS011;49514;43.538;-5.708;2022-09-09T03:51:55;15.40;;;1.50;;
60233;SDS011;49514;43.538;-5.708;2022-09-09T03:54:23;6.15;;;1.23;;
60233;SDS011;49514;43.538;-5.708;2022-09-09T03:56:50;8.32;;;1.48;;
60233;SDS011;49514;43.538;-5.708;2022-09-09T03:59:17;12.90;;;1.38;;
60233;SDS011;49514;43.538;-5.708;2022-09-09T04:01:44;9.30;;;1.20;;
60233;SDS011;49514;43.538;-5.708;2022-09-09T04:04:11;5.80;;;1.10;;
60233;SDS011;49514;43.538;-5.708;2022-09-09T04:06:38;7.35;;;1.25;;
60233;SDS011;49514;43.538;-5.708;2022-09-09T04:09:05;6.72;;;1.10;;
60233;SDS011;49514;43.538;-5.708;2022-09-09T04:11:32;7.47;;;1.38;;
60233;SDS011;49514;43.538;-5.708;2022-09-09T04:14:00;5.13;;;0.90;;
60233;SDS011;49514;43.538;-5.708;2022-09-09T04:16:28;8.07;;;1.20;;
60233;SDS011;49514;43.538;-5.708;2022-09-09T04:18:55;6.88;;;1.30;;
60233;SDS011;49514;43.538;-5.708;2022-09-09T04:21:22;6.28;;;1.20;;
60233;SDS011;49514;43.538;-5.708;2022-09-09T04:23:49;6.03;;;1.10;;
60233;SDS011;49514;43.538;-5.708;2022-09-09T04:26:17;7.88;;;1.15;;
60233;SDS011;49514;43.538;-5.708;2022-09-09T04:28:45;7.65;;;1.48;;
60233;SDS011;49514;43.538;-5.708;2022-09-09T04:31:18;9.85;;;1.13;;
60233;SDS011;49514;43.538;-5.708;2022-09-09T04:33:49;6.28;;;1.35;;
60233;SDS011;49514;43.538;-5.708;2022-09-09T04:36:16;10.10;;;1.17;;
60233;SDS011;49514;43.538;-5.708;2022-09-09T04:38:45;7.75;;;1.60;;
60233;SDS011;49514;43.538;-5.708;2022-09-09T04:41:12;11.55;;;2.25;;
60233;SDS011;49514;43.538;-5.708;2022-09-09T04:43:42;7.82;;;1.40;;
60233;SDS011;49514;43.538;-5.708;2022-09-09T04:46:09;8.60;;;1.27;;
60233;SDS011;49514;43.538;-5.708;2022-09-09T04:48:36;9.13;;;1.42;;
60233;SDS011;49514;43.538;-5.708;2022-09-09T04:51:06;5.88;;;1.23;;
60233;SDS011;49514;43.538;-5.708;2022-09-09T04:53:36;5.68;;;1.23;;
60233;SDS011;49514;43.538;-5.708;2022-09-09T04:56:08;7.35;;;1.45;;
60233;SDS011;49514;43.538;-5.708;2022-09-09T04:58:48;5.53;;;1.10;;
60233;SDS011;49514;43.538;-5.708;2022-09-09T05:01:16;8.30;;;1.20;;
60233;SDS011;49514;43.538;-5.708;2022-09-09T05:03:49;7.43;;;1.27;;
60233;SDS011;49514;43.538;-5.708;2022-09-09T05:06:21;7.35;;;1.13;;
60233;SDS011;49514;43.538;-5.708;2022-09-09T05:08:52;8.45;;;1.17;;
60233;SDS011;49514;43.538;-5.708;2022-09-09T05:11:24;12.20;;;2.03;;
60233;SDS011;49514;43.538;-5.708;2022-09-09T05:14:07;5.50;;;1.07;;
60233;SDS011;49514;43.538;-5.708;2022-09-09T05:16:35;12.48;;;1.60;;
60233;SDS011;49514;43.538;-5.708;2022-09-09T05:19:02;7.93;;;1.40;;
60233;SDS011;49514;43.538;-5.708;2022-09-09T05:21:39;14.98;;;1.40;;
60233;SDS011;49514;43.538;-5.708;2022-09-09T05:24:06;10.52;;;1.50;;
60233;SDS011;49514;43.538;-5.708;2022-09-09T05:26:33;11.45;;;1.85;;
60233;SDS011;49514;43.538;-5.708;2022-09-09T05:29:01;14.07;;;2.13;;
60233;SDS011;49514;43.538;-5.708;2022-09-09T05:31:30;13.77;;;2.03;;
60233;SDS011;49514;43.538;-5.708;2022-09-09T05:33:59;10.05;;;1.98;;
60233;SDS011;49514;43.538;-5.708;2022-09-09T05:36:26;10.60;;;1.58;;
60233;SDS011;49514;43.538;-5.708;2022-09-09T05:38:55;9.95;;;1.38;;
60233;SDS011;49514;43.538;-5.708;2022-09-09T05:41:24;6.95;;;1.02;;
60233;SDS011;49514;43.538;-5.708;2022-09-09T05:43:54;10.27;;;1.73;;
60233;SDS011;49514;43.538;-5.708;2022-09-09T05:46:23;9.77;;;1.70;;
60233;SDS011;49514;43.538;-5.708;2022-09-09T05:48:52;9.48;;;1.30;;
60233;SDS011;49514;43.538;-5.708;2022-09-09T05:51:25;7.65;;;0.98;;
60233;SDS011;49514;43.538;-5.708;2022-09-09T05:53:57;8.88;;;1.10;;
60233;SDS011;49514;43.538;-5.708;2022-09-09T05:56:30;11.20;;;1.50;;
60233;SDS011;49514;43.538;-5.708;2022-09-09T05:58:59;7.45;;;1.58;;
60233;SDS011;49514;43.538;-5.708;2022-09-09T06:01:31;8.25;;;1.10;;
60233;SDS011;49514;43.538;-5.708;2022-09-09T06:04:00;10.88;;;1.40;;
60233;SDS011;49514;43.538;-5.708;2022-09-09T06:06:31;4.63;;;0.85;;
60233;SDS011;49514;43.538;-5.708;2022-09-09T06:09:06;7.70;;;1.42;;
60233;SDS011;49514;43.538;-5.708;2022-09-09T06:11:37;5.45;;;1.13;;
60233;SDS011;49514;43.538;-5.708;2022-09-09T06:14:05;10.00;;;1.75;;
60233;SDS011;49514;43.538;-5.708;2022-09-09T06:16:32;11.30;;;1.67;;
60233;SDS011;49514;43.538;-5.708;2022-09-09T06:19:00;16.15;;;2.40;;
60233;SDS011;49514;43.538;-5.708;2022-09-09T06:21:35;23.88;;;4.07;;
60233;SDS011;49514;43.538;-5.708;2022-09-09T06:24:07;21.92;;;3.67;;
60233;SDS011;49514;43.538;-5.708;2022-09-09T06:26:38;10.63;;;2.13;;
60233;SDS011;49514;43.538;-5.708;2022-09-09T06:29:11;11.10;;;2.03;;
60233;SDS011;49514;43.538;-5.708;2022-09-09T06:31:39;10.10;;;1.92;;
60233;SDS011;49514;43.538;-5.708;2022-09-09T06:34:14;7.68;;;1.60;;
60233;SDS011;49514;43.538;-5.708;2022-09-09T06:36:45;21.35;;;3.20;;
60233;SDS011;49514;43.538;-5.708;2022-09-09T06:39:12;10.40;;;2.65;;
60233;SDS011;49514;43.538;-5.708;2022-09-09T06:41:41;11.43;;;2.03;;
60233;SDS011;49514;43.538;-5.708;2022-09-09T06:44:19;11.68;;;2.10;;
60233;SDS011;49514;43.538;-5.708;2022-09-09T06:46:46;14.27;;;2.10;;
60233;SDS011;49514;43.538;-5.708;2022-09-09T06:49:15;30.13;;;3.50;;
60233;SDS011;49514;43.538;-5.708;2022-09-09T06:51:42;28.42;;;3.25;;
60233;SDS011;49514;43.538;-5.708;2022-09-09T06:54:11;26.42;;;3.08;;
60233;SDS011;49514;43.538;-5.708;2022-09-09T06:56:41;36.58;;;3.50;;
60233;SDS011;49514;43.538;-5.708;2022-09-09T06:59:15;25.70;;;3.55;;
60233;SDS011;49514;43.538;-5.708;2022-09-09T07:01:44;25.20;;;3.20;;
60233;SDS011;49514;43.538;-5.708;2022-09-09T07:04:15;14.45;;;2.65;;
60233;SDS011;49514;43.538;-5.708;2022-09-09T07:06:44;11.95;;;2.70;;
60233;SDS011;49514;43.538;-5.708;2022-09-09T07:09:16;6.88;;;2.20;;
60233;SDS011;49514;43.538;-5.708;2022-09-09T07:11:47;8.88;;;2.35;;
60233;SDS011;49514;43.538;-5.708;2022-09-09T07:14:16;13.02;;;2.72;;
60233;SDS011;49514;43.538;-5.708;2022-09-09T07:16:47;18.50;;;2.53;;
60233;SDS011;49514;43.538;-5.708;2022-09-09T07:19:16;6.53;;;1.65;;
60233;SDS011;49514;43.538;-5.708;2022-09-09T07:21:45;7.60;;;1.33;;
60233;SDS011;49514;43.538;-5.708;2022-09-09T07:24:14;6.38;;;1.52;;
60233;SDS011;49514;43.538;-5.708;2022-09-09T07:26:42;7.55;;;1.80;;
60233;SDS011;49514;43.538;-5.708;2022-09-09T07:29:11;7.68;;;2.22;;
60233;SDS011;49514;43.538;-5.708;2022-09-09T07:31:40;12.52;;;2.33;;
60233;SDS011;49514;43.538;-5.708;2022-09-09T07:34:12;10.73;;;2.47;;
60233;SDS011;49514;43.538;-5.708;2022-09-09T07:36:39;9.38;;;2.78;;
60233;SDS011;49514;43.538;-5.708;2022-09-09T07:39:11;12.77;;;3.30;;
60233;SDS011;49514;43.538;-5.708;2022-09-09T07:41:43;13.18;;;3.35;;
60233;SDS011;49514;43.538;-5.708;2022-09-09T07:44:14;9.57;;;2.63;;
60233;SDS011;49514;43.538;-5.708;2022-09-09T07:46:45;8.65;;;2.83;;
60233;SDS011;49514;43.538;-5.708;2022-09-09T07:49:17;13.18;;;3.65;;
60233;SDS011;49514;43.538;-5.708;2022-09-09T07:51:46;11.13;;;3.33;;
60233;SDS011;49514;43.538;-5.708;2022-09-09T07:54:16;12.55;;;3.75;;
60233;SDS011;49514;43.538;-5.708;2022-09-09T07:56:50;13.85;;;4.75;;
60233;SDS011;49514;43.538;-5.708;2022-09-09T07:59:20;10.98;;;3.03;;
60233;SDS011;49514;43.538;-5.708;2022-09-09T08:01:50;13.70;;;3.45;;
60233;SDS011;49514;43.538;-5.708;2022-09-09T08:04:23;13.55;;;3.25;;
60233;SDS011;49514;43.538;-5.708;2022-09-09T08:06:58;12.80;;;2.42;;
60233;SDS011;49514;43.538;-5.708;2022-09-09T08:09:28;8.48;;;2.08;;
60233;SDS011;49514;43.538;-5.708;2022-09-09T08:12:05;7.75;;;2.42;;
60233;SDS011;49514;43.538;-5.708;2022-09-09T08:14:34;12.15;;;2.88;;
60233;SDS011;49514;43.538;-5.708;2022-09-09T08:17:01;10.77;;;2.25;;
60233;SDS011;49514;43.538;-5.708;2022-09-09T08:19:30;8.73;;;2.42;;
60233;SDS011;49514;43.538;-5.708;2022-09-09T08:22:03;9.57;;;2.17;;
60233;SDS011;49514;43.538;-5.708;2022-09-09T08:24:32;7.38;;;1.85;;
60233;SDS011;49514;43.538;-5.708;2022-09-09T08:26:59;8.77;;;2.13;;
60233;SDS011;49514;43.538;-5.708;2022-09-09T08:29:27;7.25;;;1.63;;
60233;SDS011;49514;43.538;-5.708;2022-09-09T08:31:55;8.20;;;1.98;;
60233;SDS011;49514;43.538;-5.708;2022-09-09T08:34:24;8.75;;;1.55;;
60233;SDS011;49514;43.538;-5.708;2022-09-09T08:36:53;18.50;;;2.25;;
60233;SDS011;49514;43.538;-5.708;2022-09-09T08:39:25;11.43;;;1.98;;
60233;SDS011;49514;43.538;-5.708;2022-09-09T08:50:26;9.60;;;2.05;;
60233;SDS011;49514;43.538;-5.708;2022-09-09T08:55:47;36.00;;;6.60;;
60233;SDS011;49514;43.538;-5.708;2022-09-09T09:01:02;7.60;;;2.60;;
60233;SDS011;49514;43.538;-5.708;2022-09-09T09:09:46;12.60;;;3.88;;
60233;SDS011;49514;43.538;-5.708;2022-09-09T09:12:27;15.63;;;4.55;;
60233;SDS011;49514;43.538;-5.708;2022-09-09T09:15:05;17.23;;;5.97;;
60233;SDS011;49514;43.538;-5.708;2022-09-09T09:17:44;12.15;;;4.00;;
60233;SDS011;49514;43.538;-5.708;2022-09-09T09:20:12;11.60;;;4.72;;
60233;SDS011;49514;43.538;-5.708;2022-09-09T09:22:50;11.82;;;2.78;;
60233;SDS011;49514;43.538;-5.708;2022-09-09T09:25:21;8.00;;;1.90;;
60233;SDS011;49514;43.538;-5.708;2022-09-09T09:28:08;4.93;;;1.60;;
60233;SDS011;49514;43.538;-5.708;2022-09-09T09:30:49;7.35;;;1.67;;
60233;SDS011;49514;43.538;-5.708;2022-09-09T09:33:48;11.00;;;1.90;;
60233;SDS011;49514;43.538;-5.708;2022-09-09T09:36:32;6.35;;;1.25;;
60233;SDS011;49514;43.538;-5.708;2022-09-09T09:39:03;6.05;;;1.52;;
60233;SDS011;49514;43.538;-5.708;2022-09-09T09:41:37;5.88;;;1.15;;
60233;SDS011;49514;43.538;-5.708;2022-09-09T09:44:23;5.35;;;1.20;;
60233;SDS011;49514;43.538;-5.708;2022-09-09T09:49:58;5.25;;;2.08;;
60233;SDS011;49514;43.538;-5.708;2022-09-09T09:52:32;6.03;;;1.50;;
60233;SDS011;49514;43.538;-5.708;2022-09-09T09:55:02;4.07;;;1.30;;
60233;SDS011;49514;43.538;-5.708;2022-09-09T09:57:33;4.43;;;1.80;;
60233;SDS011;49514;43.538;-5.708;2022-09-09T10:02:41;5.13;;;1.85;;
60233;SDS011;49514;43.538;-5.708;2022-09-09T10:08:02;5.47;;;0.98;;
60233;SDS011;49514;43.538;-5.708;2022-09-09T10:16:24;4.35;;;1.25;;
60233;SDS011;49514;43.538;-5.708;2022-09-09T10:19:09;1.92;;;1.13;;
60233;SDS011;49514;43.538;-5.708;2022-09-09T10:21:57;3.08;;;1.00;;
60233;SDS011;49514;43.538;-5.708;2022-09-09T10:24:43;1.83;;;0.90;;
60233;SDS011;49514;43.538;-5.708;2022-09-09T10:33:31;3.10;;;1.20;;
60233;SDS011;49514;43.538;-5.708;2022-09-09T10:36:13;3.88;;;1.17;;
60233;SDS011;49514;43.538;-5.708;2022-09-09T10:38:45;2.60;;;0.85;;
60233;SDS011;49514;43.538;-5.708;2022-09-09T10:43:53;1.48;;;1.00;;
60233;SDS011;49514;43.538;-5.708;2022-09-09T10:57:29;3.08;;;0.95;;
60233;SDS011;49514;43.538;-5.708;2022-09-09T11:00:19;3.42;;;0.98;;
60233;SDS011;49514;43.538;-5.708;2022-09-09T11:02:51;1.40;;;0.80;;
60233;SDS011;49514;43.538;-5.708;2022-09-09T11:08:28;2.60;;;1.00;;
60233;SDS011;49514;43.538;-5.708;2022-09-09T11:11:32;4.45;;;1.50;;
60233;SDS011;49514;43.538;-5.708;2022-09-09T11:14:18;2.55;;;0.90;;
60233;SDS011;49514;43.538;-5.708;2022-09-09T11:17:06;3.47;;;0.90;;
60233;SDS011;49514;43.538;-5.708;2022-09-09T11:19:43;3.35;;;1.05;;
60233;SDS011;49514;43.538;-5.708;2022-09-09T11:22:33;6.47;;;1.25;;
60233;SDS011;49514;43.538;-5.708;2022-09-09T11:25:26;3.33;;;1.00;;
60233;SDS011;49514;43.538;-5.708;2022-09-09T11:28:06;3.30;;;1.13;;
60233;SDS011;49514;43.538;-5.708;2022-09-09T11:38:58;3.63;;;1.10;;
60233;SDS011;49514;43.538;-5.708;2022-09-09T11:41:48;8.00;;;1.40;;
60233;SDS011;49514;43.538;-5.708;2022-09-09T11:44:19;3.80;;;1.00;;
60233;SDS011;49514;43.538;-5.708;2022-09-09T11:46:55;6.20;;;1.05;;
60233;SDS011;49514;43.538;-5.708;2022-09-09T11:49:29;5.07;;;1.02;;
60233;SDS011;49514;43.538;-5.708;2022-09-09T11:52:34;4.05;;;1.05;;
60233;SDS011;49514;43.538;-5.708;2022-09-09T11:58:03;5.35;;;0.90;;
60233;SDS011;49514;43.538;-5.708;2022-09-09T12:00:40;4.90;;;0.82;;
60233;SDS011;49514;43.538;-5.708;2022-09-09T12:05:58;3.58;;;0.90;;
60233;SDS011;49514;43.538;-5.708;2022-09-09T12:08:35;6.90;;;1.15;;
60233;SDS011;49514;43.538;-5.708;2022-09-09T12:11:03;2.90;;;0.70;;
60233;SDS011;49514;43.538;-5.708;2022-09-09T12:13:30;3.75;;;1.08;;
60233;SDS011;49514;43.538;-5.708;2022-09-09T12:15:58;4.05;;;0.98;;
60233;SDS011;49514;43.538;-5.708;2022-09-09T12:18:31;4.45;;;0.95;;
60233;SDS011;49514;43.538;-5.708;2022-09-09T12:24:04;4.95;;;1.02;;
60233;SDS011;49514;43.538;-5.708;2022-09-09T12:27:07;8.90;;;1.23;;
60233;SDS011;49514;43.538;-5.708;2022-09-09T12:39:49;2.30;;;0.85;;
60233;SDS011;49514;43.538;-5.708;2022-09-09T12:47:20;3.45;;;0.75;;
60233;SDS011;49514;43.538;-5.708;2022-09-09T12:49:51;4.43;;;1.30;;
60233;SDS011;49514;43.538;-5.708;2022-09-09T12:54:56;7.55;;;1.17;;
60233;SDS011;49514;43.538;-5.708;2022-09-09T12:57:25;3.22;;;0.88;;
60233;SDS011;49514;43.538;-5.708;2022-09-09T13:00:04;2.80;;;0.77;;
60233;SDS011;49514;43.538;-5.708;2022-09-09T13:02:45;2.67;;;0.80;;
60233;SDS011;49514;43.538;-5.708;2022-09-09T13:05:35;5.97;;;1.08;;
60233;SDS011;49514;43.538;-5.708;2022-09-09T13:08:08;3.05;;;1.02;;
60233;SDS011;49514;43.538;-5.708;2022-09-09T13:10:50;5.35;;;1.15;;
60233;SDS011;49514;43.538;-5.708;2022-09-09T13:13:26;7.20;;;1.30;;
60233;SDS011;49514;43.538;-5.708;2022-09-09T13:15:56;4.18;;;1.10;;
60233;SDS011;49514;43.538;-5.708;2022-09-09T13:18:29;4.13;;;1.40;;
60233;SDS011;49514;43.538;-5.708;2022-09-09T13:20:59;3.13;;;1.00;;
60233;SDS011;49514;43.538;-5.708;2022-09-09T13:23:28;5.35;;;1.20;;
60233;SDS011;49514;43.538;-5.708;2022-09-09T13:26:42;3.92;;;1.02;;
60233;SDS011;49514;43.538;-5.708;2022-09-09T13:29:14;5.45;;;1.20;;
60233;SDS011;49514;43.538;-5.708;2022-09-09T13:31:44;4.70;;;1.10;;
60233;SDS011;49514;43.538;-5.708;2022-09-09T13:34:13;6.20;;;1.15;;
60233;SDS011;49514;43.538;-5.708;2022-09-09T13:36:57;4.50;;;0.90;;
60233;SDS011;49514;43.538;-5.708;2022-09-09T13:39:34;3.50;;;1.03;;
60233;SDS011;49514;43.538;-5.708;2022-09-09T13:42:03;4.65;;;1.13;;
60233;SDS011;49514;43.538;-5.708;2022-09-09T13:44:31;3.00;;;1.00;;
60233;SDS011;49514;43.538;-5.708;2022-09-09T13:49:40;6.53;;;1.13;;
60233;SDS011;49514;43.538;-5.708;2022-09-09T13:52:11;4.43;;;1.30;;
60233;SDS011;49514;43.538;-5.708;2022-09-09T13:54:40;4.22;;;1.10;;
60233;SDS011;49514;43.538;-5.708;2022-09-09T13:57:18;3.92;;;1.00;;
60233;SDS011;49514;43.538;-5.708;2022-09-09T13:59:46;3.63;;;1.10;;
60233;SDS011;49514;43.538;-5.708;2022-09-09T14:02:15;3.53;;;1.00;;
60233;SDS011;49514;43.538;-5.708;2022-09-09T14:04:42;3.22;;;1.00;;
60233;SDS011;49514;43.538;-5.708;2022-09-09T14:07:13;4.70;;;1.00;;
60233;SDS011;49514;43.538;-5.708;2022-09-09T14:09:41;3.10;;;0.80;;
60233;SDS011;49514;43.538;-5.708;2022-09-09T14:12:12;3.50;;;0.83;;
60233;SDS011;49514;43.538;-5.708;2022-09-09T14:14:41;4.97;;;1.00;;
60233;SDS011;49514;43.538;-5.708;2022-09-09T14:17:08;3.70;;;0.93;;
60233;SDS011;49514;43.538;-5.708;2022-09-09T14:19:35;2.50;;;0.90;;
60233;SDS011;49514;43.538;-5.708;2022-09-09T14:22:03;3.38;;;0.90;;
60233;SDS011;49514;43.538;-5.708;2022-09-09T14:24:29;4.00;;;0.90;;
60233;SDS011;49514;43.538;-5.708;2022-09-09T14:26:56;5.07;;;1.08;;
60233;SDS011;49514;43.538;-5.708;2022-09-09T14:29:23;4.90;;;1.25;;
60233;SDS011;49514;43.538;-5.708;2022-09-09T14:31:52;3.50;;;1.05;;
60233;SDS011;49514;43.538;-5.708;2022-09-09T14:34:19;7.82;;;1.02;;
60233;SDS011;49514;43.538;-5.708;2022-09-09T14:36:46;3.10;;;0.90;;
60233;SDS011;49514;43.538;-5.708;2022-09-09T14:39:13;7.37;;;1.20;;
60233;SDS011;49514;43.538;-5.708;2022-09-09T14:41:40;4.65;;;0.90;;
60233;SDS011;49514;43.538;-5.708;2022-09-09T14:44:06;4.25;;;1.10;;
60233;SDS011;49514;43.538;-5.708;2022-09-09T14:46:34;6.23;;;1.13;;
60233;SDS011;49514;43.538;-5.708;2022-09-09T14:49:01;3.00;;;0.90;;
60233;SDS011;49514;43.538;-5.708;2022-09-09T14:51:28;5.32;;;0.90;;
60233;SDS011;49514;43.538;-5.708;2022-09-09T14:53:56;4.50;;;0.88;;
60233;SDS011;49514;43.538;-5.708;2022-09-09T14:56:24;3.70;;;0.97;;
60233;SDS011;49514;43.538;-5.708;2022-09-09T14:58:54;6.18;;;1.20;;
60233;SDS011;49514;43.538;-5.708;2022-09-09T15:01:22;4.18;;;0.95;;
60233;SDS011;49514;43.538;-5.708;2022-09-09T15:03:52;4.38;;;1.00;;
60233;SDS011;49514;43.538;-5.708;2022-09-09T15:06:21;3.87;;;1.00;;
60233;SDS011;49514;43.538;-5.708;2022-09-09T15:08:49;3.17;;;1.10;;
60233;SDS011;49514;43.538;-5.708;2022-09-09T15:11:18;6.23;;;1.27;;
60233;SDS011;49514;43.538;-5.708;2022-09-09T15:13:46;4.47;;;1.00;;
60233;SDS011;49514;43.538;-5.708;2022-09-09T15:16:17;4.68;;;1.10;;
60233;SDS011;49514;43.538;-5.708;2022-09-09T15:18:45;4.13;;;0.93;;
60233;SDS011;49514;43.538;-5.708;2022-09-09T15:21:17;3.60;;;1.05;;
60233;SDS011;49514;43.538;-5.708;2022-09-09T15:23:45;2.80;;;0.90;;
60233;SDS011;49514;43.538;-5.708;2022-09-09T15:26:13;6.20;;;1.15;;
60233;SDS011;49514;43.538;-5.708;2022-09-09T15:28:41;3.80;;;1.25;;
60233;SDS011;49514;43.538;-5.708;2022-09-09T15:31:19;6.68;;;1.20;;
60233;SDS011;49514;43.538;-5.708;2022-09-09T15:33:51;5.05;;;1.05;;
60233;SDS011;49514;43.538;-5.708;2022-09-09T15:39:03;5.68;;;1.10;;
60233;SDS011;49514;43.538;-5.708;2022-09-09T15:41:31;5.60;;;1.10;;
60233;SDS011;49514;43.538;-5.708;2022-09-09T15:43:59;4.35;;;0.93;;
60233;SDS011;49514;43.538;-5.708;2022-09-09T15:46:30;4.38;;;1.00;;
60233;SDS011;49514;43.538;-5.708;2022-09-09T15:51:57;4.10;;;1.10;;
60233;SDS011;49514;43.538;-5.708;2022-09-09T15:54:28;3.00;;;0.80;;
60233;SDS011;49514;43.538;-5.708;2022-09-09T15:56:59;4.57;;;0.90;;
60233;SDS011;49514;43.538;-5.708;2022-09-09T15:59:28;6.70;;;0.90;;
60233;SDS011;49514;43.538;-5.708;2022-09-09T16:01:56;4.80;;;0.90;;
60233;SDS011;49514;43.538;-5.708;2022-09-09T16:04:26;3.87;;;0.90;;
60233;SDS011;49514;43.538;-5.708;2022-09-09T16:07:05;2.10;;;0.70;;
60233;SDS011;49514;43.538;-5.708;2022-09-09T16:09:32;4.63;;;1.00;;
60233;SDS011;49514;43.538;-5.708;2022-09-09T16:12:01;2.33;;;0.80;;
60233;SDS011;49514;43.538;-5.708;2022-09-09T16:14:32;3.60;;;0.70;;
60233;SDS011;49514;43.538;-5.708;2022-09-09T16:17:02;2.40;;;0.80;;
60233;SDS011;49514;43.538;-5.708;2022-09-09T16:19:31;3.20;;;0.80;;
60233;SDS011;49514;43.538;-5.708;2022-09-09T16:22:00;4.15;;;0.90;;
60233;SDS011;49514;43.538;-5.708;2022-09-09T16:24:28;2.15;;;0.75;;
60233;SDS011;49514;43.538;-5.708;2022-09-09T16:26:55;2.25;;;0.85;;
60233;SDS011;49514;43.538;-5.708;2022-09-09T16:29:22;1.30;;;0.55;;
60233;SDS011;49514;43.538;-5.708;2022-09-09T16:31:49;2.80;;;0.85;;
60233;SDS011;49514;43.538;-5.708;2022-09-09T16:34:17;3.03;;;0.90;;
60233;SDS011;49514;43.538;-5.708;2022-09-09T16:36:45;4.85;;;1.00;;
60233;SDS011;49514;43.538;-5.708;2022-09-09T16:39:13;3.47;;;0.80;;
60233;SDS011;49514;43.538;-5.708;2022-09-09T16:41:41;4.95;;;0.95;;
60233;SDS011;49514;43.538;-5.708;2022-09-09T16:44:10;2.90;;;0.70;;
60233;SDS011;49514;43.538;-5.708;2022-09-09T16:46:39;3.53;;;1.00;;
60233;SDS011;49514;43.538;-5.708;2022-09-09T16:49:08;2.65;;;0.75;;
60233;SDS011;49514;43.538;-5.708;2022-09-09T16:51:38;2.17;;;0.70;;
60233;SDS011;49514;43.538;-5.708;2022-09-09T16:54:10;4.38;;;1.10;;
60233;SDS011;49514;43.538;-5.708;2022-09-09T16:56:40;1.67;;;0.77;;
60233;SDS011;49514;43.538;-5.708;2022-09-09T16:59:09;4.22;;;1.00;;
60233;SDS011;49514;43.538;-5.708;2022-09-09T17:01:38;4.88;;;1.23;;
60233;SDS011;49514;43.538;-5.708;2022-09-09T17:04:10;3.42;;;0.85;;
60233;SDS011;49514;43.538;-5.708;2022-09-09T17:06:47;4.15;;;1.00;;
60233;SDS011;49514;43.538;-5.708;2022-09-09T17:09:18;2.38;;;1.00;;
60233;SDS011;49514;43.538;-5.708;2022-09-09T17:11:47;2.92;;;0.90;;
60233;SDS011;49514;43.538;-5.708;2022-09-09T17:14:17;2.25;;;1.10;;
60233;SDS011;49514;43.538;-5.708;2022-09-09T17:16:45;2.22;;;0.80;;
60233;SDS011;49514;43.538;-5.708;2022-09-09T17:19:12;5.15;;;1.00;;
60233;SDS011;49514;43.538;-5.708;2022-09-09T17:21:39;3.00;;;0.90;;
60233;SDS011;49514;43.538;-5.708;2022-09-09T17:24:06;3.80;;;0.93;;
60233;SDS011;49514;43.538;-5.708;2022-09-09T17:26:33;3.72;;;1.00;;
60233;SDS011;49514;43.538;-5.708;2022-09-09T17:29:00;3.10;;;0.85;;
60233;SDS011;49514;43.538;-5.708;2022-09-09T17:31:28;3.28;;;0.88;;
60233;SDS011;49514;43.538;-5.708;2022-09-09T17:33:55;4.25;;;0.80;;
60233;SDS011;49514;43.538;-5.708;2022-09-09T17:36:25;2.33;;;0.88;;
60233;SDS011;49514;43.538;-5.708;2022-09-09T17:38:56;4.97;;;1.10;;
60233;SDS011;49514;43.538;-5.708;2022-09-09T17:41:26;4.38;;;1.10;;
60233;SDS011;49514;43.538;-5.708;2022-09-09T17:43:56;3.35;;;1.00;;